Latest Coastal Weather Observations for Proserpine

IDQ60701

Issued at 6:21 am EST Friday 19 December 2014 (issued every 10 minutes, with the page automatically refreshed every 10 minutes)

About coastal observations | Map of coastal stations | Coastal observations for QLD | Marine services | Other Formats
Station Details ID: 033247 Name: PROSERPINE AIRPORT Lat: -20.49 Lon: 148.56 Height: 19.7 m
Data from the previous 72 hours. | See also: Recent months at Proserpine
Date/Time
EST
Temp

°C
Wind Pressure Rain
since 9am
mm
Weather Cloud Vis
km
Sea
Height
m
Swell
Dir
 
Speed
knots
Gust
knots
hPa Trend Height
m
Period
s
Dir
19/06:00am 22.4 CALM 0 0 1010.7 - 0.0 - - 10 - - - -
19/05:30am 22.1 CALM 0 0 1010.6 - 0.0 - - 10 - - - -
19/05:00am 22.4 CALM 0 0 1010.5 - 0.0 - - 10 - - - -
19/04:30am 22.3 CALM 0 0 1010.3 - 0.0 - - 10 - - - -
19/04:00am 22.8 N 5 5 1010.3 - 0.0 - - 10 - - - -
19/03:30am 22.7 NNW 4 5 1010.4 - 0.0 - - 10 - - - -
19/03:00am 22.7 NNW 5 6 1010.6 - 0.0 - - 10 - - - -
19/02:30am 22.8 N 5 6 1010.7 - 0.0 - - 10 - - - -
19/02:00am 23.2 N 6 7 1010.8 - 0.0 - - 10 - - - -
19/01:30am 23.6 N 4 5 1011.4 - 0.0 - - 10 - - - -
19/01:00am 23.9 N 5 6 1011.9 - 0.0 - - 10 - - - -
19/12:30am 24.4 NNW 5 9 1012.3 - 0.0 - - 10 - - - -
19/12:05am 23.9 NW 4 5 1012.8 - 0.0 - - 10 - - - -
19/12:00am 24.2 NW 3 5 1012.8 - 0.0 - - 7 - - - -
 
Date/Time
EST
Temp

°C
Wind Pressure Rain
since 9am
mm
Weather Cloud Vis
km
Sea
Height
m
Swell
Dir
 
Speed
knots
Gust
knots
hPa Trend Height
m
Period
s
Dir
18/11:30pm 24.9 W 6 7 1013.3 - 0.0 - - 5 - - - -
18/11:11pm 25.1 WSW 5 6 1013.1 - 0.0 - - 6 - - - -
18/11:00pm 25.1 WSW 7 8 1013.2 - 0.0 - - 10 - - - -
18/10:30pm 24.6 WNW 4 5 1012.6 - 0.0 - - 10 - - - -
18/10:00pm 24.6 NNW 4 6 1012.3 - 0.0 - - 10 - - - -
18/09:30pm 25.0 NNW 4 6 1012.3 - 0.0 - - 10 - - - -
18/09:00pm 25.1 NW 5 7 1011.9 - 0.0 - - 10 - - - -
18/08:30pm 25.1 NNW 5 7 1011.5 - 0.0 - - 10 - - - -
18/08:00pm 25.6 NNW 5 7 1011.4 - 0.0 - - 10 - - - -
18/07:30pm 26.2 NNW 7 10 1010.9 - 0.0 - - 10 - - - -
18/07:00pm 26.7 NNW 9 14 1010.4 - 0.0 - - 10 - - - -
18/06:30pm 27.3 NNW 11 15 1009.8 - 0.0 - - 10 - - - -
18/06:00pm 28.5 NNW 12 15 1009.7 - 0.0 - - 10 - - - -
18/05:30pm 29.5 NNW 14 19 1009.5 - 0.0 - - 10 - - - -
18/05:00pm 30.5 NNW 13 18 1008.8 - 0.0 - - 10 - - - -
18/04:30pm 31.3 NNW 13 16 1008.1 - 0.0 - - 10 - - - -
18/04:00pm 31.7 NNW 12 18 1008.1 - 0.0 - - 10 - - - -
18/03:30pm 32.5 NNW 12 17 1008.3 - 0.0 - - 10 - - - -
18/03:00pm 33.2 N 12 17 1008.6 - 0.0 Smoke - 20 - - - -
18/02:30pm 33.0 N 12 18 1009.0 - 0.0 - - 10 - - - -
18/02:00pm 33.3 NNW 13 18 1009.6 - 0.0 - - 10 - - - -
18/01:30pm 33.2 NNW 12 18 1009.9 - 0.0 - - 10 - - - -
18/01:00pm 33.8 NW 12 17 1010.3 - 0.0 - - 10 - - - -
18/12:30pm 33.0 NNW 11 18 1010.5 - 0.0 - - 10 - - - -
18/12:00pm 33.5 NW 13 18 1010.7 - 0.0 - - 10 - - - -
18/11:30am 32.4 NNW 10 16 1011.1 - 0.0 - - 10 - - - -
18/11:00am 31.7 NNW 8 15 1011.5 - 0.0 - - 10 - - - -
18/10:30am 32.4 NNW 7 10 1011.9 - 0.0 - - 10 - - - -
18/10:00am 30.9 NNW 10 16 1012.1 - 0.0 - - 10 - - - -
18/09:30am 30.7 N 7 13 1012.4 - 0.0 - Partly cloudy 10 - - - -
18/09:00am 29.3 NNW 9 13 1012.5 - 0.0 Fine Mostly clear 35 - - - -
18/08:30am 29.5 N 7 10 1012.5 - 0.0 - - 10 - - - -
18/08:00am 28.3 N 7 9 1012.3 - 0.0 - - 10 - - - -
18/07:30am 26.8 NNW 4 5 1012.1 - 0.0 - - 10 - - - -
18/07:00am 24.6 W 1 3 1011.9 - 0.0 - - 10 - - - -
18/06:53am 24.3 W 2 4 1012.0 - 0.0 - - 8 - - - -
18/06:32am 22.9 SW 3 5 1011.6 - 0.0 - - 6 - - - -
18/06:30am 22.7 SW 4 5 1011.5 - 0.0 - - 7 - - - -
18/06:00am 21.6 CALM 0 4 1011.0 - 0.0 - - 10 - - - -
18/05:30am 21.3 WSW 2 3 1010.8 - 0.0 - - 10 - - - -
18/05:00am 21.4 CALM 0 0 1010.1 - 0.0 - - 10 - - - -
18/04:30am 20.9 CALM 0 0 1009.7 - 0.0 - - 10 - - - -
18/04:00am 21.2 CALM 0 0 1009.6 - 0.0 - - 10 - - - -
18/03:30am 21.6 CALM 0 0 1009.4 - 0.0 - - 10 - - - -
18/03:00am 21.9 CALM 0 0 1009.3 - 0.0 - - 10 - - - -
18/02:30am 22.2 N 5 7 1009.4 - 0.0 - - 10 - - - -
18/02:00am 22.0 N 5 6 1009.5 - 0.0 - - 10 - - - -
18/01:30am 22.2 NNW 2 4 1009.6 - 0.0 - - 10 - - - -
18/01:00am 22.5 N 5 6 1009.6 - 0.0 - - 10 - - - -
18/12:30am 22.3 NW 4 5 1009.7 - 0.0 - - 10 - - - -
18/12:00am 22.9 NNW 4 5 1009.7 - 0.0 - - 10 - - - -
 
Date/Time
EST
Temp

°C
Wind Pressure Rain
since 9am
mm
Weather Cloud Vis
km
Sea
Height
m
Swell
Dir
 
Speed
knots
Gust
knots
hPa Trend Height
m
Period
s
Dir
17/11:30pm 23.0 N 5 6 1010.0 - 0.0 - - 10 - - - -
17/11:00pm 23.4 N 5 7 1010.2 - 0.0 - - 10 - - - -
17/10:30pm 23.9 NNW 5 7 1010.2 - 0.0 - - 10 - - - -
17/10:00pm 24.3 N 6 8 1010.1 - 0.0 - - 10 - - - -
17/09:30pm 24.5 NNW 5 7 1009.8 - 0.0 - - 10 - - - -
17/09:00pm 25.1 NW 6 7 1009.6 - 0.0 - - 10 - - - -
17/08:30pm 25.2 NNW 7 9 1009.1 - 0.0 - - 10 - - - -
17/08:00pm 25.8 NNW 8 10 1008.9 - 0.0 - - 10 - - - -
17/07:30pm 26.5 NNW 8 11 1008.9 - 0.0 - - 10 - - - -
17/07:00pm 27.1 NNW 9 14 1008.7 - 0.0 - - 10 - - - -
17/06:30pm 28.1 NNW 11 15 1008.2 - 0.0 - - 10 - - - -
17/06:00pm 29.3 NNW 12 17 1007.6 - 0.0 - - 10 - - - -
17/05:30pm 30.4 NNW 12 17 1007.3 - 0.0 - - 10 - - - -
17/05:00pm 31.3 NNW 12 18 1006.7 - 0.0 - - 10 - - - -
17/04:30pm 31.7 N 13 19 1006.6 - 0.0 - - 10 - - - -
17/04:00pm 32.6 N 13 17 1006.6 - 0.0 - - 10 - - - -
17/03:30pm 33.0 NNW 12 18 1006.6 - 0.0 - - 10 - - - -
17/03:00pm 34.3 NNW 12 16 1006.7 - 0.0 Fine Clear 25 - - - -
17/02:30pm 33.7 N 12 18 1007.0 - 0.0 - - 10 - - - -
17/02:00pm 33.5 N 13 19 1007.1 - 0.0 - - 10 - - - -
17/01:30pm 33.9 N 12 16 1007.5 - 0.0 - - 10 - - - -
17/01:00pm 33.4 NNW 12 17 1007.8 - 0.0 - - 10 - - - -
17/12:30pm 33.4 N 11 16 1008.3 - 0.0 - - 10 - - - -
17/12:00pm 33.6 NNW 11 16 1008.5 - 0.0 - - 10 - - - -
17/11:30am 33.4 NNW 12 16 1008.8 - 0.0 - - 10 - - - -
17/11:00am 32.6 NNW 11 16 1009.3 - 0.0 - - 10 - - - -
17/10:30am 32.4 NNW 11 17 1009.8 - 0.0 - - 10 - - - -
17/10:00am 31.6 NW 13 15 1009.9 - 0.0 - - 10 - - - -
17/09:30am 30.8 NNW 11 15 1009.9 - 0.0 - - 10 - - - -
17/09:00am 29.9 N 10 15 1009.9 - 0.0 Fine Mostly clear 30 - - - -
17/08:30am 29.2 N 9 13 1010.2 - 0.0 - Partly cloudy 10 - - - -
17/08:00am 27.8 NW 7 11 1010.3 - 0.0 - - 10 - - - -
17/07:37am 26.4 NNW 4 7 1010.2 - 0.0 - - 10 - - - -
17/07:30am 26.3 NNW 4 5 1010.1 - 0.0 - - 10 - - - -
17/07:00am 23.7 CALM 0 2 1009.8 - 0.0 - - 1 - - - -
17/06:30am 21.7 WSW 1 4 1009.7 - 0.0 - - 0.5 - - - -
17/06:00am 20.1 CALM 0 0 1009.1 - 0.0 - - 3 - - - -
17/05:32am 19.3 CALM 0 0 1008.7 - 0.0 - - 6 - - - -
17/05:30am 19.2 CALM 0 0 1008.7 - 0.0 - - 7 - - - -
17/05:19am 19.3 CALM 0 0 1008.5 - 0.0 - - 10 - - - -
17/05:00am 19.5 W 2 3 1008.4 - 0.0 - - 5 - - - -
17/04:42am 19.7 CALM 0 0 1008.0 - 0.0 - - 6 - - - -
17/04:30am 19.9 CALM 0 0 1008.0 - 0.0 - - 10 - - - -
17/04:25am 19.5 CALM 0 0 1007.9 - 0.0 - - 10 - - - -
17/04:00am 19.6 WSW 3 4 1007.8 - 0.0 - - 3 - - - -
17/03:54am 19.7 W 3 4 1007.8 - 0.0 - - 6 - - - -
17/03:30am 20.1 NW 3 4 1007.8 - 0.0 - - 10 - - - -
17/03:00am 20.3 CALM 0 0 1007.7 - 0.0 - - 10 - - - -
17/02:30am 21.3 CALM 0 0 1007.8 - 0.0 - - 10 - - - -
17/02:00am 21.2 CALM 0 1 1008.0 - 0.0 - - 10 - - - -
17/01:30am 21.2 WNW 4 4 1008.3 - 0.0 - - 10 - - - -
17/01:00am 21.3 NW 4 5 1008.6 - 0.0 - - 10 - - - -
17/12:30am 21.7 NNW 4 5 1008.8 - 0.0 - - 10 - - - -
17/12:00am 22.4 NNW 4 6 1009.2 - 0.0 - - 10 - - - -
 
Date/Time
EST
Temp

°C
Wind Pressure Rain
since 9am
mm
Weather Cloud Vis
km
Sea
Height
m
Swell
Dir
 
Speed
knots
Gust
knots
hPa Trend Height
m
Period
s
Dir
16/11:30pm 23.4 NNW 5 6 1009.4 - 0.0 - - 10 - - - -
16/11:00pm 23.7 NNW 5 7 1009.6 - 0.0 - - 10 - - - -
16/10:30pm 23.8 N 6 7 1009.9 - 0.0 - - 10 - - - -
16/10:00pm 24.0 N 5 6 1010.0 - 0.0 - - 10 - - - -
16/09:30pm 24.3 NNW 5 6 1009.8 - 0.0 - - 10 - - - -
16/09:00pm 24.8 NNW 5 7 1009.5 - 0.0 - - 10 - - - -
16/08:30pm 25.3 NNW 8 10 1009.4 - 0.0 - - 10 - - - -
16/08:00pm 25.7 NNW 7 11 1009.2 - 0.0 - - 10 - - - -
16/07:30pm 26.2 NNW 7 10 1009.0 - 0.0 - - 10 - - - -
16/07:00pm 26.9 NNW 9 13 1008.7 - 0.0 - - 10 - - - -
16/06:30pm 27.8 NNW 9 13 1008.2 - 0.0 - - 10 - - - -
16/06:00pm 29.2 NNW 11 16 1007.8 - 0.0 - - 10 - - - -
16/05:30pm 30.3 NNW 12 16 1007.5 - 0.0 - - 10 - - - -
16/05:00pm 31.7 N 11 17 1007.2 - 0.0 - - 10 - - - -
16/04:30pm 32.1 N 12 16 1006.9 - 0.0 - - 10 - - - -
16/04:00pm 33.2 N 10 15 1007.0 - 0.0 - - 10 - - - -
16/03:30pm 33.4 N 10 15 1007.1 - 0.0 - - 10 - - - -
16/03:00pm 33.9 N 10 15 1007.3 - 0.0 Fine Mostly clear 25 - - - -
16/02:30pm 33.7 N 11 16 1007.7 - 0.0 - Partly cloudy 10 - - - -
16/02:00pm 34.1 N 11 15 1008.0 - 0.0 - - 10 - - - -
16/01:30pm 35.1 ENE 11 15 1008.4 - 0.0 - - 10 - - - -
16/01:00pm 34.9 SSE 5 10 1008.8 - 0.0 - - 10 - - - -
16/12:30pm 34.8 ESE 5 10 1009.3 - 0.0 - - 10 - - - -
16/12:00pm 34.6 N 6 10 1009.7 - 0.0 - - 10 - - - -
16/11:30am 34.1 NE 8 11 1010.1 - 0.0 - - 10 - - - -
16/11:00am 33.0 NNW 5 9 1010.4 - 0.0 - - 10 - - - -
16/10:30am 31.8 WNW 4 10 1010.9 - 0.0 - - 10 - - - -
16/10:00am 31.7 N 6 10 1011.2 - 0.0 - - 10 - - - -
16/09:30am 31.0 NNW 6 11 1011.5 - 0.0 - - 10 - - - -
16/09:00am 28.7 NNW 5 10 1011.5 - 0.0 Fine Clear 30 - - - -
16/08:30am 27.5 N 5 8 1011.7 - 0.0 - - 10 - - - -
16/08:00am 26.5 N 3 7 1011.8 - 0.0 - - 10 - - - -
16/07:30am 24.6 CALM 0 3 1011.6 - 0.0 - - 10 - - - -
16/07:00am 22.8 NW 2 4 1011.5 - 0.0 - - 10 - - - -
16/06:47am 22.4 NNW 2 4 1011.4 - 0.0 - - 9 - - - -
16/06:30am 21.6 CALM 0 3 1011.1 - 0.0 - - 6 - - - -

Other Formats:

Comma delimited format used in spreadsheet applications
http://www.bom.gov.au/fwo/IDQ60701/IDQ60701.94365.axf

JavaScript Object Notation format (JSON) in row-major order
http://www.bom.gov.au/fwo/IDQ60701/IDQ60701.94365.json